Time;durP1;ratioP1;P1;durP2;ratioP2;P2;SDS_P1;SDS_P2;PMS_P1;PMS_P2;Temp;Humidity;BMP_temperature;BMP_pressure;BME280_temperature;BME280_humidity;BME280_pressure;Samples;Min_cycle;Max_cycle;Signal;HPM_P1;HPM_P2
2023/05/01 00:02:07;;;;;;;;;;;;;;;;;;4348676;33;19972;-78
2023/05/01 00:04:32;;;;;;;;;;;;;;;;;;4361442;32;19989;-77
2023/05/01 00:06:57;;;;;;;;;;;;;;;;;;4361131;33;19997;-77
2023/05/01 00:09:22;;;;;;;;;;;;;;;;;;4361925;32;19966;-77
2023/05/01 00:11:47;;;;;;;;;;;;;;;;;;4361545;32;19974;-77
2023/05/01 00:14:12;;;;;;;;;;;;;;;;;;4360896;32;19997;-76
2023/05/01 00:16:37;;;;;;;;;;;;;;;;;;4360964;32;19942;-77
2023/05/01 00:19:03;;;;;;;;;;;;;;;;;;4361748;32;19974;-77
2023/05/01 00:21:29;;;;;;;;;;;;;;;;;;4360735;33;19995;-77
2023/05/01 00:23:55;;;;;;;;;;;;;;;;;;4360750;33;19939;-77
2023/05/01 00:26:20;;;;;;;;;;;;;;;;;;4349042;33;20336;-78
2023/05/01 00:28:45;;;;;;;;;;;;;;;;;;4363013;33;19956;-77
2023/05/01 00:31:10;;;;;;;;;;;;;;;;;;4360862;32;19988;-76
2023/05/01 00:33:35;;;;;;;;;;;;;;;;;;4361311;32;19943;-77
2023/05/01 00:36:00;;;;;;;;;;;;;;;;;;4362588;32;20296;-77
2023/05/01 00:38:25;;;;;;;;;;;;;;;;;;4341388;33;19942;-77
2023/05/01 00:40:50;;;;;;;;;;;;;;;;;;4346504;33;19997;-77
2023/05/01 00:43:15;;;;;;;;;;;;;;;;;;4332895;33;19946;-77
2023/05/01 00:45:41;;;;;;;;;;;;;;;;;;4348103;33;20005;-78
2023/05/01 00:48:06;;;;;;;;;;;;;;;;;;4350276;33;20313;-76
2023/05/01 00:50:32;;;;;;;;;;;;;;;;;;4348961;33;19939;-77
2023/05/01 00:52:57;;;;;;;;;;;;;;;;;;4348547;33;19938;-78
2023/05/01 00:55:22;;;;;;;;;;;;;;;;;;4346896;33;20297;-76
2023/05/01 00:57:47;;;;;;;;;;;;;;;;;;4345828;33;19943;-76
2023/05/01 01:00:12;;;;;;;;;;;;;;;;;;4345649;33;19983;-75
2023/05/01 01:02:38;;;;;;;;;;;;;;;;;;4331997;33;20040;-76
2023/05/01 01:05:04;;;;;;;;;;;;;;;;;;4346754;33;19943;-76
2023/05/01 01:07:29;;;;;;;;;;;;;;;;;;4331982;33;19931;-77
2023/05/01 01:09:54;;;;;;;;;;;;;;;;;;4345648;33;19959;-77
2023/05/01 01:12:19;;;;;;;;;;;;;;;;;;4332565;33;19938;-77
2023/05/01 01:14:44;;;;;;;;;;;;;;;;;;4346194;33;19952;-75
2023/05/01 01:17:10;;;;;;;;;;;;;;;;;;4346152;33;20022;-75
2023/05/01 01:19:35;;;;;;;;;;;;;;;;;;4332003;33;20045;-76
2023/05/01 01:22:00;;;;;;;;;;;;;;;;;;4345936;33;20338;-77
2023/05/01 01:24:26;;;;;;;;;;;;;;;;;;4332088;33;19934;-77
2023/05/01 01:26:51;;;;;;;;;;;;;;;;;;4332476;33;19931;-76
2023/05/01 01:29:16;;;;;;;;;;;;;;;;;;4331768;33;19935;-76
2023/05/01 01:31:41;;;;;;;;;;;;;;;;;;4332681;33;20374;-76
2023/05/01 01:34:07;;;;;;;;;;;;;;;;;;4331799;33;19971;-76
2023/05/01 01:36:33;;;;;;;;;;;;;;;;;;4345878;33;19935;-76
2023/05/01 01:38:58;;;;;;;;;;;;;;;;;;4345317;33;19939;-77
2023/05/01 01:41:24;;;;;;;;;;;;;;;;;;4346011;33;19977;-75
2023/05/01 01:43:49;;;;;;;;;;;;;;;;;;4346822;33;20396;-78
2023/05/01 01:46:16;;;;;;;;;;;;;;;;;;4347902;33;19999;-76
2023/05/01 01:48:41;;;;;;;;;;;;;;;;;;4350330;33;19953;-76
2023/05/01 01:51:06;;;;;;;;;;;;;;;;;;4349953;33;19942;-77
2023/05/01 01:53:31;;;;;;;;;;;;;;;;;;4349472;33;19953;-77
2023/05/01 01:55:56;;;;;;;;;;;;;;;;;;4347881;33;20007;-77
2023/05/01 01:58:25;;;;;;;;;;;;;;;;;;4348970;33;19953;-77
2023/05/01 02:00:50;;;;;;;;;;;;;;;;;;4348764;33;19977;-76
2023/05/01 02:03:15;;;;;;;;;;;;;;;;;;4348464;33;19943;-75
2023/05/01 02:05:40;;;;;;;;;;;;;;;;;;4348216;33;20345;-77
2023/05/01 02:08:05;;;;;;;;;;;;;;;;;;4347807;33;19935;-76
2023/05/01 02:10:30;;;;;;;;;;;;;;;;;;4347815;33;19966;-77
2023/05/01 02:12:55;;;;;;;;;;;;;;;;;;4347749;33;20037;-76
2023/05/01 02:15:20;;;;;;;;;;;;;;;;;;4334891;33;19939;-76
2023/05/01 02:17:46;;;;;;;;;;;;;;;;;;4329683;33;19974;-77
2023/05/01 02:20:11;;;;;;;;;;;;;;;;;;4332866;33;20292;-77
2023/05/01 02:22:36;;;;;;;;;;;;;;;;;;4333620;33;19943;-76
2023/05/01 02:25:02;;;;;;;;;;;;;;;;;;4337040;33;20359;-77
2023/05/01 02:27:27;;;;;;;;;;;;;;;;;;4335677;33;19935;-78
2023/05/01 02:29:52;;;;;;;;;;;;;;;;;;4333518;33;20372;-77
2023/05/01 02:32:18;;;;;;;;;;;;;;;;;;4332215;33;19935;-77
2023/05/01 02:34:43;;;;;;;;;;;;;;;;;;4333233;33;19981;-76
2023/05/01 02:37:08;;;;;;;;;;;;;;;;;;4331542;33;19938;-76
2023/05/01 02:39:34;;;;;;;;;;;;;;;;;;4331317;33;19954;-76
2023/05/01 02:42:00;;;;;;;;;;;;;;;;;;4331438;33;20313;-76
2023/05/01 02:44:25;;;;;;;;;;;;;;;;;;4332814;33;20030;-77
2023/05/01 02:46:50;;;;;;;;;;;;;;;;;;4333014;33;19946;-77
2023/05/01 02:49:15;;;;;;;;;;;;;;;;;;4332491;33;19951;-76
2023/05/01 02:51:40;;;;;;;;;;;;;;;;;;4333667;33;20276;-77
2023/05/01 02:54:05;;;;;;;;;;;;;;;;;;4332813;33;20002;-77
2023/05/01 02:56:30;;;;;;;;;;;;;;;;;;4331528;33;19971;-77
2023/05/01 02:58:56;;;;;;;;;;;;;;;;;;4332781;33;19946;-77
2023/05/01 03:01:21;;;;;;;;;;;;;;;;;;4332924;33;20355;-77
2023/05/01 03:03:46;;;;;;;;;;;;;;;;;;4333318;33;20026;-77
2023/05/01 03:06:13;;;;;;;;;;;;;;;;;;4333045;33;20333;-77
2023/05/01 03:08:38;;;;;;;;;;;;;;;;;;4333519;33;20312;-77
2023/05/01 03:11:03;;;;;;;;;;;;;;;;;;4331757;33;19950;-78
2023/05/01 03:13:28;;;;;;;;;;;;;;;;;;4332983;33;19954;-76
2023/05/01 03:15:53;;;;;;;;;;;;;;;;;;4332937;33;19935;-77
2023/05/01 03:18:18;;;;;;;;;;;;;;;;;;4331551;33;19943;-76
2023/05/01 03:20:44;;;;;;;;;;;;;;;;;;4331969;33;19947;-75
2023/05/01 03:23:09;;;;;;;;;;;;;;;;;;4332633;33;19950;-76
2023/05/01 03:25:34;;;;;;;;;;;;;;;;;;4331519;33;20360;-78
2023/05/01 03:27:59;;;;;;;;;;;;;;;;;;4331370;33;19989;-76
2023/05/01 03:30:24;;;;;;;;;;;;;;;;;;4330969;33;20363;-76
2023/05/01 03:32:50;;;;;;;;;;;;;;;;;;4332708;33;19950;-76
2023/05/01 03:35:15;;;;;;;;;;;;;;;;;;4330724;33;19966;-77
2023/05/01 03:37:40;;;;;;;;;;;;;;;;;;4332172;33;19947;-77
2023/05/01 03:40:06;;;;;;;;;;;;;;;;;;4331864;33;19954;-77
2023/05/01 03:42:31;;;;;;;;;;;;;;;;;;4332366;33;20009;-76
2023/05/01 03:44:56;;;;;;;;;;;;;;;;;;4331783;33;19963;-76
2023/05/01 03:47:21;;;;;;;;;;;;;;;;;;4332929;33;19970;-76
2023/05/01 03:49:46;;;;;;;;;;;;;;;;;;4332351;33;20313;-76
2023/05/01 03:52:12;;;;;;;;;;;;;;;;;;4332475;33;19971;-76
2023/05/01 03:54:37;;;;;;;;;;;;;;;;;;4331733;33;19935;-77
2023/05/01 03:57:02;;;;;;;;;;;;;;;;;;4331624;33;20340;-77
2023/05/01 03:59:27;;;;;;;;;;;;;;;;;;4330345;33;19939;-77
2023/05/01 04:01:52;;;;;;;;;;;;;;;;;;4331473;33;20297;-77
2023/05/01 04:04:18;;;;;;;;;;;;;;;;;;4331671;33;19947;-76
2023/05/01 04:06:43;;;;;;;;;;;;;;;;;;4332013;33;19973;-76
2023/05/01 04:09:08;;;;;;;;;;;;;;;;;;4329838;33;19943;-76
2023/05/01 04:11:33;;;;;;;;;;;;;;;;;;4332464;33;20319;-77
2023/05/01 04:13:58;;;;;;;;;;;;;;;;;;4330158;33;20218;-77
2023/05/01 04:16:23;;;;;;;;;;;;;;;;;;4331256;33;20264;-77
2023/05/01 04:18:48;;;;;;;;;;;;;;;;;;4331749;33;19939;-77
2023/05/01 04:21:16;;;;;;;;;;;;;;;;;;4330621;33;19944;-77
2023/05/01 04:23:41;;;;;;;;;;;;;;;;;;4332170;33;19974;-77
2023/05/01 04:26:06;;;;;;;;;;;;;;;;;;4332266;33;19935;-77
2023/05/01 04:28:31;;;;;;;;;;;;;;;;;;4331475;33;19991;-76
2023/05/01 04:30:57;;;;;;;;;;;;;;;;;;4330020;33;19962;-77
2023/05/01 04:33:22;;;;;;;;;;;;;;;;;;4331178;33;19950;-77
2023/05/01 04:35:47;;;;;;;;;;;;;;;;;;4332632;33;19947;-76
2023/05/01 04:38:12;;;;;;;;;;;;;;;;;;4330028;33;19997;-77
2023/05/01 04:40:37;;;;;;;;;;;;;;;;;;4330816;33;19946;-77
2023/05/01 04:43:02;;;;;;;;;;;;;;;;;;4331197;33;19986;-77
2023/05/01 04:45:28;;;;;;;;;;;;;;;;;;4333657;33;19985;-75
2023/05/01 04:47:53;;;;;;;;;;;;;;;;;;4337028;33;19939;-76
2023/05/01 04:50:18;;;;;;;;;;;;;;;;;;4334824;33;19943;-77
2023/05/01 04:52:43;;;;;;;;;;;;;;;;;;4332296;33;19939;-75
2023/05/01 04:55:08;;;;;;;;;;;;;;;;;;4331577;33;19940;-76
2023/05/01 04:57:33;;;;;;;;;;;;;;;;;;4331754;33;19939;-76
2023/05/01 04:59:58;;;;;;;;;;;;;;;;;;4330858;33;19949;-76
2023/05/01 05:02:24;;;;;;;;;;;;;;;;;;4331940;33;19935;-76
2023/05/01 05:04:49;;;;;;;;;;;;;;;;;;4329810;33;19949;-76
2023/05/01 05:07:15;;;;;;;;;;;;;;;;;;4331030;33;19947;-76
2023/05/01 05:09:40;;;;;;;;;;;;;;;;;;4330551;33;20028;-76
2023/05/01 05:12:05;;;;;;;;;;;;;;;;;;4330784;33;19973;-76
2023/05/01 05:14:30;;;;;;;;;;;;;;;;;;4330854;33;19986;-76
2023/05/01 05:16:55;;;;;;;;;;;;;;;;;;4337044;33;20297;-76
2023/05/01 05:19:21;;;;;;;;;;;;;;;;;;4346295;33;19966;-76
2023/05/01 05:21:46;;;;;;;;;;;;;;;;;;4358734;32;19954;-76
2023/05/01 05:24:11;;;;;;;;;;;;;;;;;;4348649;33;19973;-76
2023/05/01 05:26:37;;;;;;;;;;;;;;;;;;4359628;33;20371;-77
2023/05/01 05:29:02;;;;;;;;;;;;;;;;;;4348271;33;19942;-76
2023/05/01 05:31:27;;;;;;;;;;;;;;;;;;4349865;33;20368;-77
2023/05/01 05:33:52;;;;;;;;;;;;;;;;;;4359354;32;19970;-77
2023/05/01 05:36:17;;;;;;;;;;;;;;;;;;4349425;33;20310;-77
2023/05/01 05:38:42;;;;;;;;;;;;;;;;;;4348884;33;19959;-77
2023/05/01 05:41:07;;;;;;;;;;;;;;;;;;4348132;33;19934;-75
2023/05/01 05:43:32;;;;;;;;;;;;;;;;;;4359196;33;19973;-76
2023/05/01 05:45:58;;;;;;;;;;;;;;;;;;4347897;33;19949;-77
2023/05/01 05:48:23;;;;;;;;;;;;;;;;;;4347935;33;19935;-77
2023/05/01 05:50:49;;;;;;;;;;;;;;;;;;4347887;33;19942;-77
2023/05/01 05:53:15;;;;;;;;;;;;;;;;;;4348032;33;19981;-78
2023/05/01 05:55:40;;;;;;;;;;;;;;;;;;4359589;32;19998;-77
2023/05/01 05:58:05;;;;;;;;;;;;;;;;;;4359823;32;20355;-77
2023/05/01 06:00:30;;;;;;;;;;;;;;;;;;4349128;33;20002;-76
2023/05/01 06:02:56;;;;;;;;;;;;;;;;;;4348934;33;19938;-76
2023/05/01 06:05:21;;;;;;;;;;;;;;;;;;4349770;33;19935;-76
2023/05/01 06:07:46;;;;;;;;;;;;;;;;;;4348687;33;19935;-76
2023/05/01 06:10:11;;;;;;;;;;;;;;;;;;4348353;33;19939;-76
2023/05/01 06:12:37;;;;;;;;;;;;;;;;;;4348266;33;19957;-75
2023/05/01 06:15:02;;;;;;;;;;;;;;;;;;4348394;33;19935;-75
2023/05/01 06:17:27;;;;;;;;;;;;;;;;;;4348283;33;19952;-75
2023/05/01 06:19:53;;;;;;;;;;;;;;;;;;4359525;32;19945;-75
2023/05/01 06:22:18;;;;;;;;;;;;;;;;;;4348143;33;19951;-77
2023/05/01 06:24:43;;;;;;;;;;;;;;;;;;4358922;33;20334;-76
2023/05/01 06:27:08;;;;;;;;;;;;;;;;;;4347179;33;19943;-76
2023/05/01 06:29:33;;;;;;;;;;;;;;;;;;4347809;33;19935;-77
2023/05/01 06:31:58;;;;;;;;;;;;;;;;;;4347556;33;20005;-77
2023/05/01 06:34:23;;;;;;;;;;;;;;;;;;4347088;33;19939;-76
2023/05/01 06:36:48;;;;;;;;;;;;;;;;;;4347387;33;19938;-76
2023/05/01 06:39:13;;;;;;;;;;;;;;;;;;4358219;32;19942;-77
2023/05/01 06:41:39;;;;;;;;;;;;;;;;;;4347347;33;20260;-76
2023/05/01 06:44:04;;;;;;;;;;;;;;;;;;4358325;33;19935;-76
2023/05/01 06:46:29;;;;;;;;;;;;;;;;;;4347732;33;19934;-77
2023/05/01 06:48:54;;;;;;;;;;;;;;;;;;4347848;33;19990;-77
2023/05/01 06:51:19;;;;;;;;;;;;;;;;;;4359193;33;19966;-76
2023/05/01 06:53:45;;;;;;;;;;;;;;;;;;4359043;32;20001;-77
2023/05/01 06:56:10;;;;;;;;;;;;;;;;;;4358116;32;19939;-77
2023/05/01 06:58:35;;;;;;;;;;;;;;;;;;4352169;33;19951;-76
2023/05/01 07:01:00;;;;;;;;;;;;;;;;;;4363226;32;19938;-76
2023/05/01 07:03:28;;;;;;;;;;;;;;;;;;4362365;32;19973;-75
2023/05/01 07:05:53;;;;;;;;;;;;;;;;;;4362252;32;20021;-76
2023/05/01 07:08:18;;;;;;;;;;;;;;;;;;4362229;32;19942;-76
2023/05/01 07:10:43;;;;;;;;;;;;;;;;;;4348262;33;19949;-76
2023/05/01 07:13:08;;;;;;;;;;;;;;;;;;4363210;32;20244;-76
2023/05/01 07:15:34;;;;;;;;;;;;;;;;;;4361615;32;19943;-76
2023/05/01 07:18:01;;;;;;;;;;;;;;;;;;4348601;33;19986;-76
2023/05/01 07:20:26;;;;;;;;;;;;;;;;;;4362777;33;19985;-76
2023/05/01 07:22:51;;;;;;;;;;;;;;;;;;4348223;33;20085;-76
2023/05/01 07:25:16;;;;;;;;;;;;;;;;;;4361718;32;19938;-76
2023/05/01 07:27:42;;;;;;;;;;;;;;;;;;4361843;32;19946;-76
2023/05/01 07:30:07;;;;;;;;;;;;;;;;;;4361711;32;19939;-76
2023/05/01 07:32:32;;;;;;;;;;;;;;;;;;4347897;33;19931;-76
2023/05/01 07:34:57;;;;;;;;;;;;;;;;;;4361853;32;19939;-76
2023/05/01 07:37:22;;;;;;;;;;;;;;;;;;4347697;33;19942;-76
2023/05/01 07:39:47;;;;;;;;;;;;;;;;;;4362552;32;19953;-76
2023/05/01 07:42:13;;;;;;;;;;;;;;;;;;4362017;32;19935;-76
2023/05/01 07:44:38;;;;;;;;;;;;;;;;;;4361109;32;20381;-77
2023/05/01 07:47:03;;;;;;;;;;;;;;;;;;4361512;32;19934;-76
2023/05/01 07:49:28;;;;;;;;;;;;;;;;;;4361519;32;19994;-76
2023/05/01 07:51:54;;;;;;;;;;;;;;;;;;4361701;32;19939;-76
2023/05/01 07:54:20;;;;;;;;;;;;;;;;;;4361344;32;19976;-76
2023/05/01 07:56:45;;;;;;;;;;;;;;;;;;4360876;33;19943;-76
2023/05/01 07:59:11;;;;;;;;;;;;;;;;;;4362397;32;19982;-78
2023/05/01 08:01:36;;;;;;;;;;;;;;;;;;4362043;32;20365;-76
2023/05/01 08:04:01;;;;;;;;;;;;;;;;;;4362189;32;19970;-76
2023/05/01 08:06:27;;;;;;;;;;;;;;;;;;4348671;33;19942;-76
2023/05/01 08:08:52;;;;;;;;;;;;;;;;;;4354178;32;20008;-77
2023/05/01 08:11:17;;;;;;;;;;;;;;;;;;4350447;33;20354;-76
2023/05/01 08:13:42;;;;;;;;;;;;;;;;;;4348904;33;19943;-77
2023/05/01 08:16:07;;;;;;;;;;;;;;;;;;4362754;32;19953;-76
2023/05/01 08:18:33;;;;;;;;;;;;;;;;;;4362383;32;19946;-75
2023/05/01 08:20:58;;;;;;;;;;;;;;;;;;4364038;32;19970;-75
2023/05/01 08:23:24;;;;;;;;;;;;;;;;;;4363110;32;19943;-77
2023/05/01 08:25:50;;;;;;;;;;;;;;;;;;4362338;33;19961;-75
2023/05/01 08:28:15;;;;;;;;;;;;;;;;;;4362230;32;20022;-76
2023/05/01 08:30:40;;;;;;;;;;;;;;;;;;4362217;32;19939;-76
2023/05/01 08:33:05;;;;;;;;;;;;;;;;;;4348629;33;19938;-76
2023/05/01 08:35:31;;;;;;;;;;;;;;;;;;4362382;32;20017;-75
2023/05/01 08:37:56;;;;;;;;;;;;;;;;;;4362354;32;20010;-74
2023/05/01 08:40:21;;;;;;;;;;;;;;;;;;4350091;33;20316;-75
2023/05/01 08:42:47;;;;;;;;;;;;;;;;;;4361827;33;19974;-77
2023/05/01 08:45:13;;;;;;;;;;;;;;;;;;4360415;33;19998;-76
2023/05/01 08:47:38;;;;;;;;;;;;;;;;;;4348595;33;19950;-76
2023/05/01 08:50:03;;;;;;;;;;;;;;;;;;4348936;33;19939;-76
2023/05/01 08:52:28;;;;;;;;;;;;;;;;;;4361708;33;19969;-76
2023/05/01 08:54:55;;;;;;;;;;;;;;;;;;4360759;33;20314;-76
2023/05/01 08:57:20;;;;;;;;;;;;;;;;;;4346841;33;20062;-77
2023/05/01 08:59:45;;;;;;;;;;;;;;;;;;4360328;32;19949;-77
2023/05/01 09:02:11;;;;;;;;;;;;;;;;;;4346666;33;20000;-76
2023/05/01 09:04:36;;;;;;;;;;;;;;;;;;4346623;33;19934;-75
2023/05/01 09:07:01;;;;;;;;;;;;;;;;;;4360564;32;19938;-77
2023/05/01 09:09:26;;;;;;;;;;;;;;;;;;4360528;33;19976;-76
2023/05/01 09:11:51;;;;;;;;;;;;;;;;;;4360073;33;19981;-76
2023/05/01 09:14:16;;;;;;;;;;;;;;;;;;4346873;33;19981;-76
2023/05/01 09:16:41;;;;;;;;;;;;;;;;;;4360814;33;20009;-75
2023/05/01 09:19:07;;;;;;;;;;;;;;;;;;4360550;33;19978;-75
2023/05/01 09:21:32;;;;;;;;;;;;;;;;;;4360148;33;19946;-75
2023/05/01 09:23:57;;;;;;;;;;;;;;;;;;4360132;33;20045;-75
2023/05/01 09:26:22;;;;;;;;;;;;;;;;;;4360740;33;19941;-75
2023/05/01 09:28:47;;;;;;;;;;;;;;;;;;4346627;33;20252;-76
2023/05/01 09:31:12;;;;;;;;;;;;;;;;;;4346348;33;19949;-75
2023/05/01 09:33:37;;;;;;;;;;;;;;;;;;4360249;33;19935;-75
2023/05/01 09:36:03;;;;;;;;;;;;;;;;;;4360361;33;19994;-75
2023/05/01 09:38:28;;;;;;;;;;;;;;;;;;4360603;33;20248;-76
2023/05/01 09:40:55;;;;;;;;;;;;;;;;;;4346637;33;20030;-76
2023/05/01 09:43:20;;;;;;;;;;;;;;;;;;4347002;33;19935;-76
2023/05/01 09:45:45;;;;;;;;;;;;;;;;;;4359786;33;19961;-76
2023/05/01 09:48:10;;;;;;;;;;;;;;;;;;4359790;33;20308;-76
2023/05/01 09:50:35;;;;;;;;;;;;;;;;;;4360373;33;19957;-76
2023/05/01 09:53:01;;;;;;;;;;;;;;;;;;4359609;33;19938;-76
2023/05/01 09:55:26;;;;;;;;;;;;;;;;;;4359849;33;19934;-75
2023/05/01 09:57:51;;;;;;;;;;;;;;;;;;4346768;33;20296;-76
2023/05/01 10:00:19;;;;;;;;;;;;;;;;;;4346849;33;19973;-75
2023/05/01 10:02:44;;;;;;;;;;;;;;;;;;4346761;33;20271;-75
2023/05/01 10:05:09;;;;;;;;;;;;;;;;;;4359649;33;19938;-75
2023/05/01 10:07:34;;;;;;;;;;;;;;;;;;4360665;32;19942;-75
2023/05/01 10:10:00;;;;;;;;;;;;;;;;;;4362691;32;19946;-77
2023/05/01 10:12:25;;;;;;;;;;;;;;;;;;4348895;33;19974;-75
2023/05/01 10:14:50;;;;;;;;;;;;;;;;;;4363417;32;19949;-75
2023/05/01 10:17:15;;;;;;;;;;;;;;;;;;4362732;33;19993;-77
2023/05/01 10:19:40;;;;;;;;;;;;;;;;;;4362377;32;19970;-76
2023/05/01 10:22:06;;;;;;;;;;;;;;;;;;4363234;32;19953;-76
2023/05/01 10:24:32;;;;;;;;;;;;;;;;;;4362775;32;20005;-76
2023/05/01 10:26:57;;;;;;;;;;;;;;;;;;4363073;32;19985;-76
2023/05/01 10:29:22;;;;;;;;;;;;;;;;;;4348917;33;19938;-77
2023/05/01 10:31:47;;;;;;;;;;;;;;;;;;4349564;33;19977;-76
2023/05/01 10:34:12;;;;;;;;;;;;;;;;;;4351328;33;19938;-76
2023/05/01 10:36:38;;;;;;;;;;;;;;;;;;4372430;32;20235;-76
2023/05/01 10:39:03;;;;;;;;;;;;;;;;;;4364407;32;19962;-75
2023/05/01 10:41:28;;;;;;;;;;;;;;;;;;4350079;33;19943;-78
2023/05/01 10:43:53;;;;;;;;;;;;;;;;;;4362631;32;19977;-76
2023/05/01 10:46:18;;;;;;;;;;;;;;;;;;4349417;33;19958;-78
2023/05/01 10:48:44;;;;;;;;;;;;;;;;;;4363642;32;19998;-76
2023/05/01 10:51:12;;;;;;;;;;;;;;;;;;4365020;32;19945;-76
2023/05/01 10:53:37;;;;;;;;;;;;;;;;;;4363684;32;19942;-78
2023/05/01 10:56:04;;;;;;;;;;;;;;;;;;4348324;33;19952;-77
2023/05/01 10:58:30;;;;;;;;;;;;;;;;;;4362285;33;19935;-76
2023/05/01 11:00:55;;;;;;;;;;;;;;;;;;4350124;32;19957;-75
2023/05/01 11:03:20;;;;;;;;;;;;;;;;;;4361772;33;20126;-74
2023/05/01 11:05:45;;;;;;;;;;;;;;;;;;4362635;32;19945;-73
2023/05/01 11:08:10;;;;;;;;;;;;;;;;;;4362574;33;20330;-74
2023/05/01 11:10:35;;;;;;;;;;;;;;;;;;4348109;33;20001;-74
2023/05/01 11:13:00;;;;;;;;;;;;;;;;;;4363496;32;20241;-74
2023/05/01 11:15:25;;;;;;;;;;;;;;;;;;4361624;33;19938;-73
2023/05/01 11:17:51;;;;;;;;;;;;;;;;;;4363715;32;20012;-73
2023/05/01 11:20:16;;;;;;;;;;;;;;;;;;4364195;32;19957;-76
2023/05/01 11:22:41;;;;;;;;;;;;;;;;;;4363113;32;19973;-75
2023/05/01 11:25:06;;;;;;;;;;;;;;;;;;4362308;32;19953;-74
2023/05/01 11:27:31;;;;;;;;;;;;;;;;;;4365071;33;19973;-75
2023/05/01 11:29:56;;;;;;;;;;;;;;;;;;4350814;33;19938;-76
2023/05/01 11:32:21;;;;;;;;;;;;;;;;;;4362382;32;19970;-76
2023/05/01 11:34:47;;;;;;;;;;;;;;;;;;4366161;32;19942;-75
2023/05/01 11:37:12;;;;;;;;;;;;;;;;;;4363425;32;20012;-75
2023/05/01 11:39:37;;;;;;;;;;;;;;;;;;4361994;32;19997;-74
2023/05/01 11:42:02;;;;;;;;;;;;;;;;;;4362191;32;19945;-75
2023/05/01 11:44:29;;;;;;;;;;;;;;;;;;4347713;33;20374;-74
2023/05/01 11:46:54;;;;;;;;;;;;;;;;;;4347538;33;19930;-75
2023/05/01 11:49:19;;;;;;;;;;;;;;;;;;4361236;32;19970;-74
2023/05/01 11:51:44;;;;;;;;;;;;;;;;;;4363089;32;19990;-75
2023/05/01 11:54:10;;;;;;;;;;;;;;;;;;4347634;33;19977;-75
2023/05/01 11:56:35;;;;;;;;;;;;;;;;;;4360943;32;19989;-75
2023/05/01 11:59:00;;;;;;;;;;;;;;;;;;4361703;32;20375;-74
2023/05/01 12:01:25;;;;;;;;;;;;;;;;;;4361012;32;19979;-75
2023/05/01 12:03:50;;;;;;;;;;;;;;;;;;4361157;32;20379;-74
2023/05/01 12:06:16;;;;;;;;;;;;;;;;;;4360523;33;19934;-75
2023/05/01 12:08:41;;;;;;;;;;;;;;;;;;4361243;32;20342;-73
2023/05/01 12:11:06;;;;;;;;;;;;;;;;;;4362514;32;19938;-75
2023/05/01 12:13:31;;;;;;;;;;;;;;;;;;4361244;32;19973;-74
2023/05/01 12:15:57;;;;;;;;;;;;;;;;;;4360731;33;19935;-74
2023/05/01 12:18:22;;;;;;;;;;;;;;;;;;4348065;33;19939;-75
2023/05/01 12:20:47;;;;;;;;;;;;;;;;;;4360976;32;19942;-74
2023/05/01 12:23:13;;;;;;;;;;;;;;;;;;4362195;32;19934;-75
2023/05/01 12:25:38;;;;;;;;;;;;;;;;;;4361323;32;19950;-74
2023/05/01 12:28:03;;;;;;;;;;;;;;;;;;4361783;32;19958;-76
2023/05/01 12:30:29;;;;;;;;;;;;;;;;;;4360847;32;19986;-75
2023/05/01 12:32:54;;;;;;;;;;;;;;;;;;4361477;32;19934;-75
2023/05/01 12:35:19;;;;;;;;;;;;;;;;;;4360952;32;20029;-76
2023/05/01 12:37:45;;;;;;;;;;;;;;;;;;4361937;32;19938;-76
2023/05/01 12:40:11;;;;;;;;;;;;;;;;;;4362229;33;19956;-76
2023/05/01 12:42:37;;;;;;;;;;;;;;;;;;4361434;32;19973;-76
2023/05/01 12:45:02;;;;;;;;;;;;;;;;;;4361547;32;19979;-77
2023/05/01 12:47:27;;;;;;;;;;;;;;;;;;4347281;33;20370;-76
2023/05/01 12:49:52;;;;;;;;;;;;;;;;;;4361789;33;19939;-76
2023/05/01 12:52:17;;;;;;;;;;;;;;;;;;4348747;33;20364;-76
2023/05/01 12:54:42;;;;;;;;;;;;;;;;;;4347434;33;19938;-77
2023/05/01 12:57:08;;;;;;;;;;;;;;;;;;4361133;32;19953;-77
2023/05/01 12:59:33;;;;;;;;;;;;;;;;;;4360614;32;19939;-76
2023/05/01 13:01:58;;;;;;;;;;;;;;;;;;4346467;33;19976;-76
2023/05/01 13:04:23;;;;;;;;;;;;;;;;;;4360702;33;19946;-76
2023/05/01 13:06:48;;;;;;;;;;;;;;;;;;4346643;33;20328;-77
2023/05/01 13:09:15;;;;;;;;;;;;;;;;;;4360674;32;19934;-77
2023/05/01 13:11:40;;;;;;;;;;;;;;;;;;4360846;33;19942;-76
2023/05/01 13:14:06;;;;;;;;;;;;;;;;;;4346657;33;19957;-76
2023/05/01 13:16:31;;;;;;;;;;;;;;;;;;4360391;33;19988;-76
2023/05/01 13:18:56;;;;;;;;;;;;;;;;;;4361172;33;19934;-76
2023/05/01 13:21:21;;;;;;;;;;;;;;;;;;4360131;33;19953;-76
2023/05/01 13:23:47;;;;;;;;;;;;;;;;;;4360153;33;19975;-76
2023/05/01 13:26:12;;;;;;;;;;;;;;;;;;4361125;33;19978;-76
2023/05/01 13:28:39;;;;;;;;;;;;;;;;;;4360780;33;19977;-76
2023/05/01 13:31:04;;;;;;;;;;;;;;;;;;4359984;33;19945;-75
2023/05/01 13:33:30;;;;;;;;;;;;;;;;;;4347688;33;19939;-73
2023/05/01 13:35:55;;;;;;;;;;;;;;;;;;4346731;33;20316;-75
2023/05/01 13:38:23;;;;;;;;;;;;;;;;;;4346566;33;19942;-75
2023/05/01 13:40:48;;;;;;;;;;;;;;;;;;4360481;32;19962;-75
2023/05/01 13:43:17;;;;;;;;;;;;;;;;;;4363162;32;19953;-75
2023/05/01 13:45:42;;;;;;;;;;;;;;;;;;4363551;32;20325;-74
2023/05/01 13:48:07;;;;;;;;;;;;;;;;;;4363454;32;20252;-75
2023/05/01 13:50:32;;;;;;;;;;;;;;;;;;4364322;32;20021;-76
2023/05/01 13:52:57;;;;;;;;;;;;;;;;;;4363437;32;20296;-75
2023/05/01 13:55:23;;;;;;;;;;;;;;;;;;4362855;32;19969;-74
2023/05/01 13:57:48;;;;;;;;;;;;;;;;;;4363093;32;19953;-75
2023/05/01 14:00:16;;;;;;;;;;;;;;;;;;4349172;33;19938;-75
2023/05/01 14:02:41;;;;;;;;;;;;;;;;;;4362841;32;19951;-75
2023/05/01 14:05:08;;;;;;;;;;;;;;;;;;4362947;32;19967;-75
2023/05/01 14:07:33;;;;;;;;;;;;;;;;;;4349412;33;19946;-75
2023/05/01 14:09:58;;;;;;;;;;;;;;;;;;4363137;32;20366;-76
2023/05/01 14:12:23;;;;;;;;;;;;;;;;;;4349160;33;19942;-75
2023/05/01 14:14:48;;;;;;;;;;;;;;;;;;4362986;32;19948;-75
2023/05/01 14:17:14;;;;;;;;;;;;;;;;;;4349034;33;19958;-76
2023/05/01 14:19:39;;;;;;;;;;;;;;;;;;4349275;33;20386;-74
2023/05/01 14:22:04;;;;;;;;;;;;;;;;;;4363376;32;20316;-75
2023/05/01 14:24:29;;;;;;;;;;;;;;;;;;4363184;32;19953;-75
2023/05/01 14:26:54;;;;;;;;;;;;;;;;;;4348901;33;19935;-74
2023/05/01 14:29:19;;;;;;;;;;;;;;;;;;4363203;32;19938;-75
2023/05/01 14:31:45;;;;;;;;;;;;;;;;;;4363326;32;19989;-75
2023/05/01 14:34:10;;;;;;;;;;;;;;;;;;4362592;32;19960;-74
2023/05/01 14:36:36;;;;;;;;;;;;;;;;;;4362784;32;19993;-75
2023/05/01 14:39:01;;;;;;;;;;;;;;;;;;4362801;33;19985;-74
2023/05/01 14:41:26;;;;;;;;;;;;;;;;;;4362555;32;19947;-76
2023/05/01 14:43:54;;;;;;;;;;;;;;;;;;4349374;33;19974;-75
2023/05/01 14:46:19;;;;;;;;;;;;;;;;;;4362426;32;19974;-75
2023/05/01 14:48:44;;;;;;;;;;;;;;;;;;4362425;32;19987;-76
2023/05/01 14:51:10;;;;;;;;;;;;;;;;;;4364449;32;19961;-75
2023/05/01 14:53:35;;;;;;;;;;;;;;;;;;4363440;32;19939;-75
2023/05/01 14:56:01;;;;;;;;;;;;;;;;;;4361951;32;19943;-74
2023/05/01 14:58:26;;;;;;;;;;;;;;;;;;4362565;33;19994;-75
2023/05/01 15:00:51;;;;;;;;;;;;;;;;;;4348659;33;20002;-75
2023/05/01 15:03:16;;;;;;;;;;;;;;;;;;4348393;33;19939;-75
2023/05/01 15:05:43;;;;;;;;;;;;;;;;;;4362581;32;20008;-75
2023/05/01 15:08:08;;;;;;;;;;;;;;;;;;4349350;33;19939;-75
2023/05/01 15:10:33;;;;;;;;;;;;;;;;;;4349216;33;19994;-75
2023/05/01 15:12:58;;;;;;;;;;;;;;;;;;4362560;32;19942;-74
2023/05/01 15:15:24;;;;;;;;;;;;;;;;;;4349085;33;20259;-75
2023/05/01 15:17:49;;;;;;;;;;;;;;;;;;4363118;32;20315;-76
2023/05/01 15:20:14;;;;;;;;;;;;;;;;;;4347883;33;19957;-76
2023/05/01 15:22:40;;;;;;;;;;;;;;;;;;4348467;33;19946;-74
2023/05/01 15:25:05;;;;;;;;;;;;;;;;;;4361806;32;19945;-74
2023/05/01 15:27:30;;;;;;;;;;;;;;;;;;4362475;32;19938;-76
2023/05/01 15:29:56;;;;;;;;;;;;;;;;;;4362696;32;19950;-75
2023/05/01 15:32:21;;;;;;;;;;;;;;;;;;4356605;32;19971;-73
2023/05/01 15:34:46;;;;;;;;;;;;;;;;;;4365290;33;19958;-73
2023/05/01 15:37:11;;;;;;;;;;;;;;;;;;4363016;33;20281;-73
2023/05/01 15:39:37;;;;;;;;;;;;;;;;;;4361552;33;19938;-74
2023/05/01 15:42:02;;;;;;;;;;;;;;;;;;4362342;32;19960;-73
2023/05/01 15:44:27;;;;;;;;;;;;;;;;;;4362668;32;20256;-73
2023/05/01 15:46:53;;;;;;;;;;;;;;;;;;4361118;33;19980;-74
2023/05/01 15:49:18;;;;;;;;;;;;;;;;;;4361171;32;19981;-74
2023/05/01 15:51:43;;;;;;;;;;;;;;;;;;4361250;32;20103;-74
2023/05/01 15:54:08;;;;;;;;;;;;;;;;;;4360907;32;19986;-74
2023/05/01 15:56:34;;;;;;;;;;;;;;;;;;4361532;32;20252;-75
2023/05/01 15:58:59;;;;;;;;;;;;;;;;;;4347790;33;19939;-75
2023/05/01 16:01:25;;;;;;;;;;;;;;;;;;4362370;32;20323;-74
2023/05/01 16:03:50;;;;;;;;;;;;;;;;;;4360989;32;19965;-75
2023/05/01 16:06:15;;;;;;;;;;;;;;;;;;4360034;32;19943;-73
2023/05/01 16:08:40;;;;;;;;;;;;;;;;;;4347463;33;19934;-73
2023/05/01 16:11:06;;;;;;;;;;;;;;;;;;4360686;32;20327;-74
2023/05/01 16:13:31;;;;;;;;;;;;;;;;;;4362063;32;20264;-74
2023/05/01 16:15:56;;;;;;;;;;;;;;;;;;4360650;33;20303;-75
2023/05/01 16:18:21;;;;;;;;;;;;;;;;;;4360614;33;19969;-74
2023/05/01 16:20:46;;;;;;;;;;;;;;;;;;4362225;32;19942;-74
2023/05/01 16:23:11;;;;;;;;;;;;;;;;;;4360948;32;19962;-75
2023/05/01 16:25:36;;;;;;;;;;;;;;;;;;4360733;32;19946;-74
2023/05/01 16:28:01;;;;;;;;;;;;;;;;;;4347539;33;19977;-74
2023/05/01 16:30:27;;;;;;;;;;;;;;;;;;4360206;33;19996;-74
2023/05/01 16:32:52;;;;;;;;;;;;;;;;;;4360557;32;19949;-75